Weather at Bartow Executive Airport

Public forecast

Using degrees Fahrenheit for public forecast. Weather courtesy of forecast.io.

Current aviation weather report (METAR) for Bartow Executive Airport

Retrieved 2020/12/01 04:35 UTC (14 minutes ago):

KBOW 010435Z AUTO 30012G19KT 10SM CLR 15/08 A3005 RMK AO2

Closest aviation forecast (TAF) to Bartow Executive Airport

Closest forecast is Lakeland Linder International Airport, 12.8 nm (23.6 km) WNW. Retrieved 2020-12-01 00:30 UTC (4 hours ago):

TAF KLAL 302329Z 0100/0124 30008KT P6SM BKN035 TEMPO 0100/0103 SCT035 FM010800 33010KT P6SM SCT030 TEMPO 0108/0112 BKN030 FM011400 34010KT P6SM SKC AMD NOT SKED 0102/0111